Time;durP1;ratioP1;P1;durP2;ratioP2;P2;SDS_P1;SDS_P2;PMS_P1;PMS_P2;Temp;Humidity;BMP_temperature;BMP_pressure;BME280_temperature;BME280_humidity;BME280_pressure;Samples;Min_cycle;Max_cycle;Signal;HPM_P1;HPM_P2
2023/10/10 00:02:04;;;;;;;10.85;6.65;;;;;;;;;;5063762;28;20076;-66
2023/10/10 00:05:39;;;;;;;13.18;6.32;;;;;;;;;;5063392;28;20054;-67
2023/10/10 00:09:23;;;;;;;16.30;6.82;;;;;;;;;;5066113;28;20075;-64
2023/10/10 00:13:11;;;;;;;11.30;6.30;;;;;;;;;;5067007;28;20031;-65
2023/10/10 00:16:41;;;;;;;13.63;6.18;;;;;;;;;;5069327;28;20044;-64
2023/10/10 00:20:25;;;;;;;14.20;6.15;;;;;;;;;;5065061;28;20496;-64
2023/10/10 00:24:03;;;;;;;11.65;5.88;;;;;;;;;;5064772;28;20106;-64
2023/10/10 00:27:44;;;;;;;9.57;6.07;;;;;;;;;;5070701;28;20069;-65
2023/10/10 00:31:25;;;;;;;12.32;6.40;;;;;;;;;;5063439;28;20075;-65
2023/10/10 00:35:06;;;;;;;9.18;6.13;;;;;;;;;;5066399;28;20373;-65
2023/10/10 00:38:46;;;;;;;9.98;6.15;;;;;;;;;;5067213;28;20044;-65
2023/10/10 00:42:36;;;;;;;9.70;6.10;;;;;;;;;;5067460;28;20063;-64
2023/10/10 00:46:06;;;;;;;12.27;6.35;;;;;;;;;;5064991;28;20250;-65
2023/10/10 00:49:46;;;;;;;13.70;6.53;;;;;;;;;;5060581;28;20052;-64
2023/10/10 00:53:27;;;;;;;12.60;6.45;;;;;;;;;;5061228;28;20506;-68
2023/10/10 00:57:08;;;;;;;10.40;6.20;;;;;;;;;;5074452;28;20052;-64
2023/10/10 01:00:47;;;;;;;13.13;7.00;;;;;;;;;;5065210;28;20074;-63
2023/10/10 01:04:38;;;;;;;12.82;6.82;;;;;;;;;;5064638;28;20492;-64
2023/10/10 01:08:17;;;;;;;9.70;6.35;;;;;;;;;;5065207;28;20484;-65
2023/10/10 01:11:56;;;;;;;9.20;6.32;;;;;;;;;;5064286;28;20041;-64
2023/10/10 01:15:37;;;;;;;13.25;7.22;;;;;;;;;;5071241;28;20036;-63
2023/10/10 01:19:18;;;;;;;10.52;6.75;;;;;;;;;;5067921;28;20049;-64
2023/10/10 01:22:58;;;;;;;10.45;6.35;;;;;;;;;;5067253;28;20048;-64
2023/10/10 01:26:44;;;;;;;9.40;6.63;;;;;;;;;;5066532;28;20074;-64
2023/10/10 01:30:43;;;;;;;8.93;5.97;;;;;;;;;;5065266;28;20053;-64
2023/10/10 01:34:08;;;;;;;9.82;5.90;;;;;;;;;;5065150;28;20051;-64
2023/10/10 01:37:54;;;;;;;10.80;6.53;;;;;;;;;;5066659;28;20152;-64
2023/10/10 01:41:38;;;;;;;9.60;6.43;;;;;;;;;;5061639;28;20123;-66
2023/10/10 01:45:08;;;;;;;11.85;6.18;;;;;;;;;;5064558;28;20131;-66
2023/10/10 01:48:48;;;;;;;8.32;5.97;;;;;;;;;;5068388;28;20044;-65
2023/10/10 01:52:28;;;;;;;9.77;6.45;;;;;;;;;;5067266;28;20388;-63
2023/10/10 01:56:11;;;;;;;9.38;6.20;;;;;;;;;;5064606;28;20135;-63
2023/10/10 01:59:57;;;;;;;10.65;6.18;;;;;;;;;;5056766;28;20492;-64
2023/10/10 02:03:36;;;;;;;8.73;6.10;;;;;;;;;;5067707;28;20048;-65
2023/10/10 02:07:22;;;;;;;9.18;5.97;;;;;;;;;;5060970;28;20488;-63
2023/10/10 02:10:56;;;;;;;11.43;5.93;;;;;;;;;;5068269;28;20047;-64
2023/10/10 02:14:36;;;;;;;12.10;5.75;;;;;;;;;;5064350;28;20036;-63
2023/10/10 02:18:37;;;;;;;9.93;6.43;;;;;;;;;;5073583;28;20101;-65
2023/10/10 02:32:35;;;;;;;10.38;5.55;;;;;;;;;;5063599;28;20416;-63
2023/10/10 02:36:15;;;;;;;9.48;6.78;;;;;;;;;;5065255;28;20040;-64
2023/10/10 02:40:15;;;;;;;11.65;6.28;;;;;;;;;;5063464;28;20137;-63
2023/10/10 02:44:04;;;;;;;13.07;6.30;;;;;;;;;;5064102;28;20067;-63
2023/10/10 02:47:39;;;;;;;10.88;6.63;;;;;;;;;;5066180;28;20642;-63
2023/10/10 02:51:18;;;;;;;9.60;6.15;;;;;;;;;;5071202;28;20052;-63
2023/10/10 02:54:58;;;;;;;11.45;5.85;;;;;;;;;;5064913;28;20063;-64
2023/10/10 02:58:42;;;;;;;10.45;6.28;;;;;;;;;;5067888;28;20118;-63
2023/10/10 03:02:20;;;;;;;11.30;6.30;;;;;;;;;;5061462;28;20076;-63
2023/10/10 03:06:06;;;;;;;9.73;5.97;;;;;;;;;;5068155;28;20485;-63
2023/10/10 03:10:14;;;;;;;16.38;6.55;;;;;;;;;;5066009;28;20048;-63
2023/10/10 03:21:12;;;;;;;10.32;5.93;;;;;;;;;;5067961;28;20071;-67
2023/10/10 03:24:50;;;;;;;12.23;6.20;;;;;;;;;;5068130;28;20442;-64
2023/10/10 03:28:19;;;;;;;10.57;6.65;;;;;;;;;;5068651;28;20046;-62
2023/10/10 03:35:59;;;;;;;11.20;6.00;;;;;;;;;;5065963;28;20087;-64
2023/10/10 03:39:53;;;;;;;7.88;5.53;;;;;;;;;;5064821;28;20399;-63
2023/10/10 05:23:29;;;;;;;12.70;6.00;;;;;;;;;;5067678;28;20532;-63
2023/10/10 05:25:59;;;;;;;11.43;6.45;;;;;;;;;;5072230;28;20080;-65
2023/10/10 05:29:38;;;;;;;10.63;7.07;;;;;;;;;;5066229;28;20496;-65
2023/10/10 05:33:19;;;;;;;15.40;6.80;;;;;;;;;;5065867;28;20780;-63
2023/10/10 05:36:58;;;;;;;9.90;6.28;;;;;;;;;;5062192;28;20044;-63
2023/10/10 05:40:38;;;;;;;11.05;6.18;;;;;;;;;;5068024;28;20059;-64
2023/10/10 05:44:19;;;;;;;13.05;5.43;;;;;;;;;;5062032;28;20056;-66
2023/10/10 05:47:59;;;;;;;10.18;5.97;;;;;;;;;;5061921;28;20406;-65
2023/10/10 05:51:40;;;;;;;11.73;6.20;;;;;;;;;;5059953;28;20424;-68
2023/10/10 05:55:20;;;;;;;9.95;6.07;;;;;;;;;;5072332;28;20130;-65
2023/10/10 05:59:02;;;;;;;8.52;5.70;;;;;;;;;;5070712;28;20074;-64
2023/10/10 06:02:48;;;;;;;12.10;6.13;;;;;;;;;;5058620;28;20060;-64
2023/10/10 06:06:29;;;;;;;8.82;5.70;;;;;;;;;;5062952;28;20056;-63
2023/10/10 06:10:16;;;;;;;10.27;5.90;;;;;;;;;;5067639;28;20048;-65
2023/10/10 06:13:53;;;;;;;10.00;6.03;;;;;;;;;;5059223;28;20053;-66
2023/10/10 06:17:33;;;;;;;11.10;6.32;;;;;;;;;;5060889;28;20051;-65
2023/10/10 06:21:15;;;;;;;12.68;6.20;;;;;;;;;;5062766;28;20452;-65
2023/10/10 06:24:57;;;;;;;13.10;6.75;;;;;;;;;;5060670;28;20075;-64
2023/10/10 06:28:35;;;;;;;8.57;5.53;;;;;;;;;;5060218;28;20143;-65
2023/10/10 06:32:16;;;;;;;13.18;5.90;;;;;;;;;;5064069;28;20053;-64
2023/10/10 06:35:56;;;;;;;10.65;5.63;;;;;;;;;;5063021;28;20063;-64
2023/10/10 06:43:17;;;;;;;10.25;5.88;;;;;;;;;;5059220;28;20040;-64
2023/10/10 06:46:57;;;;;;;10.52;5.40;;;;;;;;;;5062593;28;20799;-66
2023/10/10 06:50:38;;;;;;;14.45;5.88;;;;;;;;;;5065879;28;20106;-64
2023/10/10 06:54:27;;;;;;;7.20;5.55;;;;;;;;;;5058027;28;20057;-64
2023/10/10 06:58:13;;;;;;;16.08;7.07;;;;;;;;;;5063800;28;20040;-64
2023/10/10 07:01:50;;;;;;;12.18;6.18;;;;;;;;;;5063767;28;20070;-66
2023/10/10 07:05:33;;;;;;;14.52;5.40;;;;;;;;;;5064086;28;20037;-64
2023/10/10 07:09:36;;;;;;;14.55;5.22;;;;;;;;;;5059883;28;20179;-65
2023/10/10 07:13:18;;;;;;;13.85;5.47;;;;;;;;;;5064743;28;20062;-65
2023/10/10 07:16:56;;;;;;;14.02;5.85;;;;;;;;;;5064958;28;20456;-65
2023/10/10 07:24:15;;;;;;;14.75;5.47;;;;;;;;;;5060891;28;20170;-67
2023/10/10 07:27:56;;;;;;;9.55;5.13;;;;;;;;;;5056753;28;20122;-67
2023/10/10 07:31:40;;;;;;;9.23;5.45;;;;;;;;;;5061438;28;20648;-68
2023/10/10 07:35:16;;;;;;;14.73;5.45;;;;;;;;;;5055272;28;20045;-65
2023/10/10 07:42:37;;;;;;;10.30;4.93;;;;;;;;;;5068716;28;20131;-67
2023/10/10 07:46:21;;;;;;;11.00;5.07;;;;;;;;;;5059429;28;20388;-67
2023/10/10 07:49:55;;;;;;;10.73;5.25;;;;;;;;;;5061687;28;20037;-69
2023/10/10 07:53:36;;;;;;;10.45;5.15;;;;;;;;;;5063031;28;20153;-66
2023/10/10 07:57:22;;;;;;;10.25;5.05;;;;;;;;;;5065242;28;20126;-67
2023/10/10 08:01:10;;;;;;;12.65;5.53;;;;;;;;;;5065353;28;20048;-66
2023/10/10 08:04:50;;;;;;;11.48;5.80;;;;;;;;;;5064549;28;20083;-67
2023/10/10 08:08:30;;;;;;;16.58;5.80;;;;;;;;;;5066678;28;20094;-66
2023/10/10 08:12:11;;;;;;;16.00;5.95;;;;;;;;;;5064820;28;20052;-65
2023/10/10 08:15:56;;;;;;;17.10;6.53;;;;;;;;;;5066443;28;20094;-64
2023/10/10 08:19:33;;;;;;;20.95;6.00;;;;;;;;;;5066075;28;20057;-64
2023/10/10 08:23:13;;;;;;;15.32;6.00;;;;;;;;;;5068528;28;20048;-65
2023/10/10 08:26:53;;;;;;;20.65;6.65;;;;;;;;;;5067544;28;20320;-66
2023/10/10 08:30:33;;;;;;;17.15;6.30;;;;;;;;;;5065437;28;20049;-64
2023/10/10 08:34:14;;;;;;;19.88;6.53;;;;;;;;;;5065907;28;20051;-66
2023/10/10 08:37:56;;;;;;;23.42;7.03;;;;;;;;;;5068840;28;20113;-62
2023/10/10 08:41:38;;;;;;;18.50;7.60;;;;;;;;;;5066257;28;20159;-64
2023/10/10 08:45:22;;;;;;;20.08;7.25;;;;;;;;;;5065335;28;20043;-62
2023/10/10 08:48:57;;;;;;;18.98;7.40;;;;;;;;;;5062644;28;20377;-63
2023/10/10 08:52:38;;;;;;;27.80;7.50;;;;;;;;;;5067294;28;20051;-65
2023/10/10 08:56:17;;;;;;;21.58;7.55;;;;;;;;;;5065750;28;20396;-63
2023/10/10 08:59:57;;;;;;;12.88;8.02;;;;;;;;;;5071322;28;20113;-63
2023/10/10 09:03:44;;;;;;;19.15;8.38;;;;;;;;;;5065662;28;20056;-63
2023/10/10 09:07:27;;;;;;;31.50;8.90;;;;;;;;;;5067755;28;20403;-65
2023/10/10 09:11:04;;;;;;;21.98;9.35;;;;;;;;;;5066084;28;20045;-64
2023/10/10 09:14:57;;;;;;;22.67;8.43;;;;;;;;;;5065045;28;20063;-63
2023/10/10 09:18:36;;;;;;;24.13;8.40;;;;;;;;;;5067591;28;20053;-68
2023/10/10 09:22:28;;;;;;;20.00;8.07;;;;;;;;;;5066370;28;20037;-67
2023/10/10 09:26:12;;;;;;;18.83;7.55;;;;;;;;;;5083765;28;20052;-64
2023/10/10 09:29:54;;;;;;;17.40;7.13;;;;;;;;;;5071513;28;20483;-68
2023/10/10 09:33:30;;;;;;;18.73;7.03;;;;;;;;;;5065855;28;20068;-66
2023/10/10 09:37:09;;;;;;;9.68;5.93;;;;;;;;;;5064311;28;20037;-63
2023/10/10 09:41:10;;;;;;;12.07;5.80;;;;;;;;;;5064202;28;20048;-64
2023/10/10 09:48:05;;;;;;;10.55;5.68;;;;;;;;;;5066683;28;20131;-64
2023/10/10 09:58:43;;;;;;;11.40;5.55;;;;;;;;;;5066831;28;20648;-64
2023/10/10 10:02:40;;;;;;;11.30;5.35;;;;;;;;;;5070537;28;20044;-65
2023/10/10 10:06:19;;;;;;;10.00;4.70;;;;;;;;;;5062491;28;20036;-67
2023/10/10 10:09:38;;;;;;;11.23;5.15;;;;;;;;;;5064930;28;21093;-65
2023/10/10 10:13:37;;;;;;;12.82;5.97;;;;;;;;;;5066499;28;20063;-67
2023/10/10 10:17:18;;;;;;;11.45;6.30;;;;;;;;;;5063921;28;20071;-64
2023/10/10 10:21:04;;;;;;;;;;;;;;;;;;5064941;28;20141;-64
2023/10/10 10:24:29;;;;;;;11.25;5.25;;;;;;;;;;5067035;28;20489;-63
2023/10/10 10:28:14;;;;;;;11.63;5.32;;;;;;;;;;5063486;28;20072;-64
2023/10/10 10:31:57;;;;;;;9.93;4.65;;;;;;;;;;5055729;28;20062;-65
2023/10/10 10:35:39;;;;;;;6.55;4.15;;;;;;;;;;5068574;28;20058;-65
2023/10/10 10:39:20;;;;;;;21.83;4.93;;;;;;;;;;5068434;28;20565;-64
2023/10/10 10:43:03;;;;;;;11.27;4.90;;;;;;;;;;5061892;28;20128;-64
2023/10/10 10:46:15;;;;;;;9.25;4.50;;;;;;;;;;5066113;28;20496;-64
2023/10/10 10:48:54;;;;;;;7.82;4.40;;;;;;;;;;5061886;28;20048;-64
2023/10/10 10:51:26;;;;;;;14.93;4.88;;;;;;;;;;5065433;28;20071;-65
2023/10/10 10:53:56;;;;;;;9.70;4.85;;;;;;;;;;5064663;28;20401;-65
2023/10/10 11:01:45;;;;;;;12.70;4.40;;;;;;;;;;5066945;28;20040;-64
2023/10/10 11:04:25;;;;;;;10.25;4.40;;;;;;;;;;5064139;28;20056;-63
2023/10/10 11:06:56;;;;;;;11.18;4.93;;;;;;;;;;5103299;28;20045;-63
2023/10/10 11:09:31;;;;;;;6.32;4.18;;;;;;;;;;5068742;28;20044;-67
2023/10/10 11:12:05;;;;;;;9.38;4.25;;;;;;;;;;5064111;28;20093;-67
2023/10/10 11:14:34;;;;;;;12.38;4.70;;;;;;;;;;5075390;28;20070;-66
2023/10/10 11:17:00;;;;;;;11.23;4.80;;;;;;;;;;5072436;28;20051;-62
2023/10/10 11:21:59;;;;;;;13.50;4.88;;;;;;;;;;5065802;28;20048;-66
2023/10/10 11:24:29;;;;;;;9.88;5.15;;;;;;;;;;5068109;28;20064;-65
2023/10/10 11:29:47;;;;;;;9.18;4.43;;;;;;;;;;5074326;28;20052;-62
2023/10/10 11:32:16;;;;;;;11.18;4.90;;;;;;;;;;5065896;28;20496;-62
2023/10/10 11:34:42;;;;;;;8.35;4.43;;;;;;;;;;5063497;28;20048;-65
2023/10/10 11:37:13;;;;;;;9.63;5.05;;;;;;;;;;5063904;28;20499;-62
2023/10/10 11:39:47;;;;;;;11.18;5.07;;;;;;;;;;5069684;28;20052;-63
2023/10/10 11:42:28;;;;;;;13.80;4.88;;;;;;;;;;5068032;28;20499;-64
2023/10/10 11:45:02;;;;;;;12.82;5.20;;;;;;;;;;5071636;28;20048;-65
2023/10/10 11:47:28;;;;;;;9.48;4.68;;;;;;;;;;5071536;28;20249;-65
2023/10/10 11:50:04;;;;;;;7.88;4.47;;;;;;;;;;5067938;28;20503;-64
2023/10/10 11:52:30;;;;;;;9.55;4.55;;;;;;;;;;5062654;28;20049;-63
2023/10/10 11:54:58;;;;;;;7.07;3.42;;;;;;;;;;5064245;28;20048;-63
2023/10/10 11:57:28;;;;;;;9.38;4.05;;;;;;;;;;5063396;28;20052;-68
2023/10/10 11:59:58;;;;;;;9.30;4.00;;;;;;;;;;5067330;28;20052;-64
2023/10/10 12:02:39;;;;;;;10.02;4.45;;;;;;;;;;5066377;28;20048;-63
2023/10/10 12:05:36;;;;;;;7.80;4.32;;;;;;;;;;5062222;28;20492;-63
2023/10/10 12:08:05;;;;;;;10.07;4.35;;;;;;;;;;5069388;28;20047;-63
2023/10/10 12:10:52;;;;;;;10.93;4.53;;;;;;;;;;5064871;28;20435;-64
2023/10/10 12:13:44;;;;;;;7.78;3.85;;;;;;;;;;5068246;28;20086;-63
2023/10/10 12:16:12;;;;;;;6.22;3.63;;;;;;;;;;5065757;28;20048;-65
2023/10/10 12:18:45;;;;;;;7.40;3.90;;;;;;;;;;5067935;28;20064;-63
2023/10/10 12:21:14;;;;;;;6.60;3.80;;;;;;;;;;5069293;28;20414;-65
2023/10/10 12:23:41;;;;;;;8.75;3.70;;;;;;;;;;5069358;28;20044;-64
2023/10/10 12:26:11;;;;;;;9.00;3.60;;;;;;;;;;5066157;28;20398;-64
2023/10/10 12:28:38;;;;;;;11.10;3.85;;;;;;;;;;5062466;28;20060;-62
2023/10/10 12:31:08;;;;;;;8.27;3.85;;;;;;;;;;5068465;28;20079;-62
2023/10/10 12:33:38;;;;;;;7.40;4.30;;;;;;;;;;5065393;28;20052;-65
2023/10/10 12:36:09;;;;;;;9.05;3.75;;;;;;;;;;5060544;28;20041;-67
2023/10/10 12:38:37;;;;;;;6.88;4.07;;;;;;;;;;5082472;28;20048;-64
2023/10/10 12:41:22;;;;;;;8.35;4.68;;;;;;;;;;5068812;28;20055;-63
2023/10/10 12:43:51;;;;;;;9.45;4.60;;;;;;;;;;5070642;28;20154;-64
2023/10/10 12:46:20;;;;;;;11.93;4.55;;;;;;;;;;5071349;28;20059;-62
2023/10/10 12:48:49;;;;;;;9.75;4.47;;;;;;;;;;5071593;28;20047;-63
2023/10/10 12:51:15;;;;;;;10.48;6.03;;;;;;;;;;5069180;28;20036;-63
2023/10/10 12:53:42;;;;;;;11.15;5.47;;;;;;;;;;5064378;28;20080;-63
2023/10/10 12:56:19;;;;;;;13.38;5.70;;;;;;;;;;5067326;28;20515;-65
2023/10/10 12:58:51;;;;;;;13.10;5.75;;;;;;;;;;5068036;28;20048;-64
2023/10/10 13:01:25;;;;;;;8.60;5.32;;;;;;;;;;5095360;28;20764;-64
2023/10/10 13:03:52;;;;;;;8.38;5.15;;;;;;;;;;5066498;28;20053;-64
2023/10/10 13:06:22;;;;;;;6.53;4.22;;;;;;;;;;5067388;28;20114;-67
2023/10/10 13:08:49;;;;;;;9.43;4.85;;;;;;;;;;5066952;28;20407;-66
2023/10/10 13:11:20;;;;;;;5.72;3.40;;;;;;;;;;5068206;28;20040;-66
2023/10/10 13:13:51;;;;;;;6.80;3.58;;;;;;;;;;5071494;28;20167;-64
2023/10/10 13:16:23;;;;;;;5.97;3.47;;;;;;;;;;5067614;28;20056;-66
2023/10/10 13:18:50;;;;;;;9.57;4.13;;;;;;;;;;5066179;28;20059;-62
2023/10/10 13:21:19;;;;;;;6.82;3.83;;;;;;;;;;5069524;28;20098;-64
2023/10/10 13:23:54;;;;;;;7.72;3.38;;;;;;;;;;5072293;28;20393;-63
2023/10/10 13:26:21;;;;;;;7.55;3.42;;;;;;;;;;5068326;28;20052;-63
2023/10/10 13:28:48;;;;;;;6.75;3.30;;;;;;;;;;5070600;28;20274;-66
2023/10/10 13:31:18;;;;;;;5.68;3.30;;;;;;;;;;5069872;28;20500;-65
2023/10/10 13:33:45;;;;;;;8.18;3.90;;;;;;;;;;5073773;28;20550;-63
2023/10/10 13:36:15;;;;;;;4.93;3.20;;;;;;;;;;5070949;28;20071;-65
2023/10/10 13:38:49;;;;;;;7.35;3.80;;;;;;;;;;5065299;28;20071;-63
2023/10/10 13:41:20;;;;;;;6.18;4.05;;;;;;;;;;5074223;28;20054;-63
2023/10/10 13:43:47;;;;;;;5.70;3.35;;;;;;;;;;5067262;28;20048;-65
2023/10/10 13:46:15;;;;;;;7.82;3.30;;;;;;;;;;5059929;28;20052;-66
2023/10/10 13:48:41;;;;;;;10.18;3.42;;;;;;;;;;5067020;28;20060;-64
2023/10/10 13:51:08;;;;;;;6.20;3.60;;;;;;;;;;5064585;28;20040;-65
2023/10/10 13:53:35;;;;;;;7.20;4.75;;;;;;;;;;5069442;28;20148;-62
2023/10/10 13:56:03;;;;;;;8.70;3.53;;;;;;;;;;5063356;28;20074;-63
2023/10/10 13:58:30;;;;;;;5.95;3.42;;;;;;;;;;5051154;28;20049;-67
2023/10/10 14:01:15;;;;;;;5.35;3.55;;;;;;;;;;5078407;28;20049;-63
2023/10/10 14:03:48;;;;;;;5.25;3.28;;;;;;;;;;5075707;28;20052;-64
2023/10/10 14:07:00;;;;;;;5.45;3.10;;;;;;;;;;5065745;28;20037;-65
2023/10/10 14:10:35;;;;;;;7.28;3.40;;;;;;;;;;5065943;28;20032;-64
2023/10/10 14:14:15;;;;;;;6.13;3.22;;;;;;;;;;5063180;28;20127;-69
2023/10/10 14:17:56;;;;;;;6.45;3.38;;;;;;;;;;5063623;28;20055;-65
2023/10/10 14:21:38;;;;;;;5.95;3.30;;;;;;;;;;5066668;28;20041;-66
2023/10/10 14:25:16;;;;;;;6.72;3.30;;;;;;;;;;5061771;28;20499;-68
2023/10/10 14:29:04;;;;;;;5.68;3.25;;;;;;;;;;5063069;28;20093;-65
2023/10/10 14:32:41;;;;;;;9.48;3.13;;;;;;;;;;5063849;28;20045;-66
2023/10/10 14:36:19;;;;;;;8.90;3.10;;;;;;;;;;5058556;28;20068;-68
2023/10/10 14:40:01;;;;;;;11.25;3.45;;;;;;;;;;5069274;28;20400;-67
2023/10/10 14:43:41;;;;;;;7.20;3.10;;;;;;;;;;5062535;28;20048;-67
2023/10/10 14:47:21;;;;;;;9.23;3.28;;;;;;;;;;5056783;28;20060;-65
2023/10/10 14:51:05;;;;;;;4.88;3.47;;;;;;;;;;5060711;28;20048;-64
2023/10/10 14:54:48;;;;;;;5.97;3.53;;;;;;;;;;5058256;28;20048;-63
2023/10/10 14:58:23;;;;;;;5.50;3.00;;;;;;;;;;5060596;28;20186;-63
2023/10/10 15:02:04;;;;;;;7.20;2.90;;;;;;;;;;5061592;28;20529;-63
2023/10/10 15:05:47;;;;;;;6.90;3.08;;;;;;;;;;5063086;28;20056;-65
2023/10/10 15:09:25;;;;;;;6.10;2.45;;;;;;;;;;5064838;28;20109;-65
2023/10/10 15:13:08;;;;;;;6.22;2.70;;;;;;;;;;5064686;28;20044;-65
2023/10/10 15:16:47;;;;;;;4.72;2.97;;;;;;;;;;5066806;28;20041;-66
2023/10/10 15:20:27;;;;;;;7.22;2.97;;;;;;;;;;5063426;28;20127;-66
2023/10/10 15:24:14;;;;;;;4.85;2.97;;;;;;;;;;5065025;28;20071;-64
2023/10/10 15:27:54;;;;;;;7.78;2.90;;;;;;;;;;5065886;28;20045;-65
2023/10/10 15:31:34;;;;;;;5.25;2.92;;;;;;;;;;5063135;28;20381;-68
2023/10/10 15:35:16;;;;;;;4.60;3.05;;;;;;;;;;5059096;28;20270;-68
2023/10/10 15:38:54;;;;;;;3.95;2.50;;;;;;;;;;5064508;28;20377;-65
2023/10/10 15:42:36;;;;;;;5.57;3.03;;;;;;;;;;5058393;28;20051;-68
2023/10/10 15:46:16;;;;;;;4.32;2.63;;;;;;;;;;5062023;28;20049;-66
2023/10/10 15:50:00;;;;;;;8.23;3.38;;;;;;;;;;5062528;28;20052;-66
2023/10/10 15:53:38;;;;;;;7.95;2.90;;;;;;;;;;5077743;28;20037;-65
2023/10/10 15:57:22;;;;;;;4.88;3.05;;;;;;;;;;5065214;28;20094;-66
2023/10/10 16:01:00;;;;;;;7.03;3.53;;;;;;;;;;5067604;28;20044;-65
2023/10/10 16:04:44;;;;;;;5.88;3.10;;;;;;;;;;5068604;28;20449;-65
2023/10/10 16:08:24;;;;;;;7.55;3.00;;;;;;;;;;5065127;28;20063;-65
2023/10/10 16:12:08;;;;;;;8.90;3.38;;;;;;;;;;5064799;28;20060;-67
2023/10/10 16:15:45;;;;;;;6.03;3.05;;;;;;;;;;5066499;28;20551;-68
2023/10/10 16:19:32;;;;;;;6.50;3.28;;;;;;;;;;5064825;28;20097;-69
2023/10/10 16:23:09;;;;;;;7.47;3.80;;;;;;;;;;5067848;28;20040;-66
2023/10/10 16:26:58;;;;;;;9.65;3.63;;;;;;;;;;5052867;28;20500;-65
2023/10/10 16:30:32;;;;;;;5.22;3.40;;;;;;;;;;5063645;28;20064;-65
2023/10/10 16:34:16;;;;;;;5.85;3.90;;;;;;;;;;5062983;28;20048;-67
2023/10/10 16:37:53;;;;;;;6.85;3.05;;;;;;;;;;5064999;28;20480;-65
2023/10/10 16:41:34;;;;;;;6.80;3.10;;;;;;;;;;5055485;28;20040;-68
2023/10/10 16:45:17;;;;;;;8.88;3.88;;;;;;;;;;5063460;28;20075;-67
2023/10/10 16:48:56;;;;;;;8.50;3.60;;;;;;;;;;5058895;28;20480;-66
2023/10/10 16:52:36;;;;;;;9.48;3.83;;;;;;;;;;5062121;28;20044;-67
2023/10/10 16:56:21;;;;;;;7.70;4.00;;;;;;;;;;5065522;27;20610;-67
2023/10/10 17:00:02;;;;;;;8.52;3.78;;;;;;;;;;5063546;28;20139;-65
2023/10/10 17:03:48;;;;;;;7.53;3.97;;;;;;;;;;5068901;28;20083;-67
2023/10/10 17:07:27;;;;;;;8.93;4.32;;;;;;;;;;5068866;28;20048;-66
2023/10/10 17:11:14;;;;;;;6.47;4.25;;;;;;;;;;5069335;28;20047;-71
2023/10/10 17:14:44;;;;;;;6.95;4.20;;;;;;;;;;5071556;28;20234;-67
2023/10/10 17:18:25;;;;;;;7.57;4.40;;;;;;;;;;5059114;28;20074;-63
2023/10/10 17:22:05;;;;;;;7.32;4.50;;;;;;;;;;5062215;28;20048;-66
2023/10/10 17:25:46;;;;;;;6.90;4.50;;;;;;;;;;5065879;28;20052;-66
2023/10/10 17:29:28;;;;;;;13.40;5.03;;;;;;;;;;5054910;28;20047;-64
2023/10/10 17:33:06;;;;;;;10.05;4.90;;;;;;;;;;5061594;28;20053;-66
2023/10/10 17:36:49;;;;;;;9.68;5.47;;;;;;;;;;5064428;28;20659;-69
2023/10/10 17:40:28;;;;;;;8.20;5.53;;;;;;;;;;5059886;28;20052;-66
2023/10/10 17:44:09;;;;;;;16.67;5.10;;;;;;;;;;5059044;28;20040;-68
2023/10/10 17:47:50;;;;;;;11.27;5.57;;;;;;;;;;5069462;28;20040;-67
2023/10/10 17:51:33;;;;;;;7.32;5.40;;;;;;;;;;5072359;28;20059;-64
2023/10/10 17:55:10;;;;;;;8.80;5.22;;;;;;;;;;5072192;28;20048;-67
2023/10/10 17:58:50;;;;;;;10.25;5.60;;;;;;;;;;5049002;28;20123;-67
2023/10/10 18:02:32;;;;;;;8.77;4.72;;;;;;;;;;5052200;28;20047;-67
2023/10/10 18:06:20;;;;;;;6.63;4.82;;;;;;;;;;5064481;28;20480;-67
2023/10/10 18:10:01;;;;;;;11.35;5.25;;;;;;;;;;5062935;28;20142;-69
2023/10/10 18:13:42;;;;;;;15.32;9.98;;;;;;;;;;5064082;28;20050;-67
2023/10/10 18:17:23;;;;;;;10.60;6.22;;;;;;;;;;5065723;28;20048;-68
2023/10/10 18:21:07;;;;;;;9.18;5.25;;;;;;;;;;5061335;28;20068;-67
2023/10/10 18:24:46;;;;;;;10.07;5.28;;;;;;;;;;5059381;28;20049;-67
2023/10/10 18:28:29;;;;;;;9.05;5.53;;;;;;;;;;5061609;28;20052;-67
2023/10/10 18:32:07;;;;;;;11.25;6.15;;;;;;;;;;5064283;28;20049;-67
2023/10/10 18:35:47;;;;;;;9.93;4.93;;;;;;;;;;5066594;28;20062;-65
2023/10/10 18:39:43;;;;;;;9.25;5.25;;;;;;;;;;5056096;28;20486;-67
2023/10/10 18:43:24;;;;;;;10.55;4.95;;;;;;;;;;5052500;28;20237;-69
2023/10/10 18:47:05;;;;;;;7.70;4.82;;;;;;;;;;5057343;28;20075;-67
2023/10/10 18:50:45;;;;;;;8.13;4.82;;;;;;;;;;5060012;28;20514;-72
2023/10/10 18:54:26;;;;;;;13.18;5.22;;;;;;;;;;5059458;28;20051;-67
2023/10/10 18:58:06;;;;;;;7.05;4.90;;;;;;;;;;5060368;28;20048;-66
2023/10/10 19:01:50;;;;;;;8.68;5.32;;;;;;;;;;5063622;28;20041;-68
2023/10/10 19:05:33;;;;;;;10.48;4.65;;;;;;;;;;5059745;28;20048;-66
2023/10/10 19:09:14;;;;;;;10.70;4.63;;;;;;;;;;5060869;28;20530;-68
2023/10/10 19:12:54;;;;;;;14.10;5.45;;;;;;;;;;5057835;28;20078;-68
2023/10/10 19:16:38;;;;;;;13.93;5.20;;;;;;;;;;5051818;28;20048;-67
2023/10/10 19:20:18;;;;;;;10.18;4.75;;;;;;;;;;5062081;28;20060;-65
2023/10/10 19:24:01;;;;;;;6.75;4.57;;;;;;;;;;5061870;28;20044;-66
2023/10/10 19:27:39;;;;;;;9.88;4.80;;;;;;;;;;5065353;28;20558;-66
2023/10/10 19:31:20;;;;;;;10.52;5.00;;;;;;;;;;5064191;28;20060;-67
2023/10/10 19:35:00;;;;;;;10.00;4.57;;;;;;;;;;5069818;28;20106;-67
2023/10/10 19:38:40;;;;;;;9.13;4.70;;;;;;;;;;5063722;28;20403;-67
2023/10/10 19:42:21;;;;;;;25.23;9.52;;;;;;;;;;5064296;28;20037;-68
2023/10/10 19:46:01;;;;;;;15.68;8.07;;;;;;;;;;5076850;28;20070;-68
2023/10/10 19:49:43;;;;;;;8.57;4.95;;;;;;;;;;5066599;28;20044;-67
2023/10/10 19:53:28;;;;;;;12.70;5.63;;;;;;;;;;5063622;28;20040;-68
2023/10/10 19:57:06;;;;;;;6.60;4.50;;;;;;;;;;5068845;28;20076;-67
2023/10/10 20:00:46;;;;;;;8.10;4.10;;;;;;;;;;5064199;28;20052;-67
2023/10/10 20:04:26;;;;;;;7.55;4.97;;;;;;;;;;5063659;28;20052;-67
2023/10/10 20:08:07;;;;;;;7.07;4.25;;;;;;;;;;5068711;28;20139;-67
2023/10/10 20:11:48;;;;;;;9.55;4.47;;;;;;;;;;5075849;28;20093;-68
2023/10/10 20:15:27;;;;;;;7.85;5.40;;;;;;;;;;5060795;28;20044;-69
2023/10/10 20:19:08;;;;;;;8.07;5.15;;;;;;;;;;5062298;28;20403;-67
2023/10/10 20:22:49;;;;;;;9.27;4.53;;;;;;;;;;5060324;28;20112;-70
2023/10/10 20:26:30;;;;;;;8.40;5.35;;;;;;;;;;5067552;28;20094;-67
2023/10/10 20:30:14;;;;;;;9.63;5.57;;;;;;;;;;5072089;28;20079;-67
2023/10/10 20:33:51;;;;;;;10.02;4.72;;;;;;;;;;5070202;28;20105;-67
2023/10/10 20:37:32;;;;;;;11.70;5.10;;;;;;;;;;5071121;28;20488;-67
2023/10/10 20:41:07;;;;;;;6.53;4.60;;;;;;;;;;5065231;28;20040;-66
2023/10/10 20:44:45;;;;;;;8.50;5.70;;;;;;;;;;5062601;28;20503;-67
2023/10/10 20:48:25;;;;;;;10.02;5.00;;;;;;;;;;5058367;28;20044;-71
2023/10/10 20:52:07;;;;;;;9.82;4.32;;;;;;;;;;5062300;28;20048;-67
2023/10/10 20:55:48;;;;;;;7.55;4.40;;;;;;;;;;5065412;28;20139;-66
2023/10/10 20:59:31;;;;;;;11.30;4.97;;;;;;;;;;5073434;28;20107;-68
2023/10/10 21:03:14;;;;;;;8.70;5.03;;;;;;;;;;5046614;28;20042;-67
2023/10/10 21:06:52;;;;;;;10.50;5.70;;;;;;;;;;5051840;28;20075;-66
2023/10/10 21:10:28;;;;;;;9.10;6.43;;;;;;;;;;5062140;28;20052;-70
2023/10/10 21:14:10;;;;;;;14.30;6.95;;;;;;;;;;5047727;28;20567;-66
2023/10/10 21:17:50;;;;;;;14.82;8.77;;;;;;;;;;5071682;28;20036;-67
2023/10/10 21:21:31;;;;;;;14.35;9.50;;;;;;;;;;5076499;28;20101;-68
2023/10/10 21:25:11;;;;;;;16.10;8.52;;;;;;;;;;5055845;28;22214;-66
2023/10/10 21:28:12;;;;;;;14.73;8.88;;;;;;;;;;5062956;28;20040;-70
2023/10/10 21:30:38;;;;;;;13.85;9.00;;;;;;;;;;5067669;28;20064;-68
2023/10/10 21:33:06;;;;;;;16.73;9.82;;;;;;;;;;5066029;28;20601;-67
2023/10/10 21:35:32;;;;;;;12.65;9.45;;;;;;;;;;5069137;28;20036;-66
2023/10/10 21:37:58;;;;;;;17.52;9.43;;;;;;;;;;5074332;28;20060;-66
2023/10/10 21:40:27;;;;;;;13.02;9.25;;;;;;;;;;5069415;28;20052;-65
2023/10/10 21:42:54;;;;;;;15.73;8.98;;;;;;;;;;5063744;28;20044;-66
2023/10/10 21:46:00;;;;;;;15.32;10.02;;;;;;;;;;5069092;28;20059;-67
2023/10/10 21:49:43;;;;;;;14.55;9.43;;;;;;;;;;5065829;28;20052;-67
2023/10/10 21:53:21;;;;;;;19.15;10.38;;;;;;;;;;5064407;28;20044;-67
2023/10/10 21:57:01;;;;;;;16.23;9.48;;;;;;;;;;5059562;28;20040;-69
2023/10/10 22:04:05;;;;;;;16.00;9.75;;;;;;;;;;5064956;28;20043;-68
2023/10/10 22:07:46;;;;;;;18.27;10.02;;;;;;;;;;5065853;28;20326;-68
2023/10/10 22:11:26;;;;;;;17.38;9.25;;;;;;;;;;5062774;28;20040;-66
2023/10/10 22:15:08;;;;;;;12.43;9.50;;;;;;;;;;5063942;28;20045;-65
2023/10/10 22:18:48;;;;;;;11.77;8.60;;;;;;;;;;5075586;28;20036;-66
2023/10/10 22:22:28;;;;;;;14.10;8.45;;;;;;;;;;5056560;28;20052;-65
2023/10/10 22:26:09;;;;;;;14.10;8.00;;;;;;;;;;5078883;28;20055;-65
2023/10/10 22:29:49;;;;;;;12.00;8.43;;;;;;;;;;5078613;28;20052;-66
2023/10/10 22:33:29;;;;;;;12.88;8.23;;;;;;;;;;5057503;28;20194;-67
2023/10/10 22:37:10;;;;;;;12.63;8.40;;;;;;;;;;5068072;28;20060;-67
2023/10/10 22:40:50;;;;;;;13.25;8.43;;;;;;;;;;5059248;28;20060;-65
2023/10/10 22:44:30;;;;;;;12.77;8.27;;;;;;;;;;5074654;28;20047;-66
2023/10/10 22:48:14;;;;;;;11.57;7.78;;;;;;;;;;5065037;28;20039;-65
2023/10/10 22:51:53;;;;;;;14.75;7.72;;;;;;;;;;5060333;28;20127;-68
2023/10/10 22:55:35;;;;;;;13.52;8.25;;;;;;;;;;5067161;28;20334;-68